createdAt,value
2023-02-19T00:01:16.338Z,2.72
2023-02-19T00:03:32.915Z,2.83
2023-02-19T00:05:49.698Z,2.85
2023-02-19T00:08:06.188Z,2.67
2023-02-19T00:10:22.629Z,2.92
2023-02-19T00:12:39.136Z,2.70
2023-02-19T00:14:55.935Z,2.60
2023-02-19T00:17:12.412Z,2.70
2023-02-19T00:19:28.779Z,2.90
2023-02-19T00:21:45.144Z,2.50
2023-02-19T00:24:01.864Z,2.45
2023-02-19T00:26:18.990Z,2.50
2023-02-19T00:28:35.434Z,2.53
2023-02-19T00:30:52.218Z,2.70
2023-02-19T00:33:08.461Z,2.50
2023-02-19T00:35:24.747Z,2.70
2023-02-19T00:37:41.124Z,2.47
2023-02-19T00:39:57.815Z,2.90
2023-02-19T00:42:14.615Z,3.05
2023-02-19T00:44:31.029Z,3.03
2023-02-19T00:46:47.885Z,3.00
2023-02-19T00:49:04.411Z,3.08
2023-02-19T00:51:20.962Z,2.70
2023-02-19T00:53:37.315Z,2.83
2023-02-19T00:55:53.688Z,3.20
2023-02-19T00:58:10.068Z,2.92
2023-02-19T01:00:26.798Z,2.85
2023-02-19T01:02:43.290Z,2.83
2023-02-19T01:04:59.916Z,2.60
2023-02-19T01:07:16.274Z,2.92
2023-02-19T01:09:32.769Z,3.05
2023-02-19T01:11:49.470Z,3.22
2023-02-19T01:14:05.961Z,2.90
2023-02-19T01:16:22.484Z,2.97
2023-02-19T01:18:39.023Z,2.80
2023-02-19T01:20:55.371Z,3.38
2023-02-19T01:23:11.758Z,3.00
2023-02-19T01:25:28.072Z,2.92
2023-02-19T01:27:44.526Z,2.90
2023-02-19T01:30:01.056Z,2.70
2023-02-19T01:32:17.849Z,2.83
2023-02-19T01:34:34.358Z,3.00
2023-02-19T01:36:51.172Z,2.80
2023-02-19T01:39:07.546Z,2.70
2023-02-19T01:41:24.056Z,2.70
2023-02-19T01:43:40.540Z,2.90
2023-02-19T01:45:56.924Z,3.03
2023-02-19T01:48:13.465Z,3.15
2023-02-19T01:50:29.934Z,2.83
2023-02-19T01:52:46.626Z,2.72
2023-02-19T01:55:02.991Z,2.65
2023-02-19T01:57:19.522Z,2.60
2023-02-19T01:59:36.242Z,2.60
2023-02-19T02:01:53.039Z,2.30
2023-02-19T02:04:09.818Z,2.30
2023-02-19T02:06:26.248Z,2.33
2023-02-19T02:08:42.821Z,2.08
2023-02-19T02:10:59.286Z,2.08
2023-02-19T02:13:15.640Z,2.20
2023-02-19T02:15:31.975Z,2.20
2023-02-19T02:17:48.771Z,2.33
2023-02-19T02:20:05.131Z,2.20
2023-02-19T02:22:21.599Z,2.20
2023-02-19T02:24:38.105Z,2.10
2023-02-19T02:26:54.494Z,2.17
2023-02-19T02:29:10.869Z,2.30
2023-02-19T02:31:27.747Z,2.42
2023-02-19T02:33:44.494Z,1.98
2023-02-19T02:36:00.869Z,2.10
2023-02-19T02:38:17.339Z,2.05
2023-02-19T02:40:34.105Z,1.92
2023-02-19T02:42:50.467Z,2.08
2023-02-19T02:45:06.876Z,1.83
2023-02-19T02:47:23.254Z,1.90
2023-02-19T02:49:40.023Z,1.70
2023-02-19T02:51:56.457Z,1.90
2023-02-19T02:54:13.021Z,2.00
2023-02-19T02:56:29.423Z,1.90
2023-02-19T02:58:45.943Z,1.70
2023-02-19T03:01:02.733Z,1.73
2023-02-19T03:03:19.547Z,1.75
2023-02-19T03:05:35.940Z,1.88
2023-02-19T03:07:52.393Z,1.80
2023-02-19T03:10:08.755Z,2.00
2023-02-19T03:12:25.089Z,1.98
2023-02-19T03:14:41.395Z,1.73
2023-02-19T03:16:57.894Z,1.92
2023-02-19T03:19:14.764Z,1.80
2023-02-19T03:21:31.110Z,1.67
2023-02-19T03:23:47.643Z,1.88
2023-02-19T03:26:04.069Z,1.88
2023-02-19T03:28:20.656Z,1.70
2023-02-19T03:30:37.377Z,1.73
2023-02-19T03:32:53.829Z,1.70
2023-02-19T03:35:10.295Z,1.30
2023-02-19T03:37:26.742Z,1.58
2023-02-19T03:39:43.081Z,1.23
2023-02-19T03:41:59.365Z,1.58
2023-02-19T03:44:15.671Z,1.40
2023-02-19T03:46:32.298Z,1.30
2023-02-19T03:48:48.645Z,1.27
2023-02-19T03:51:05.247Z,1.00
2023-02-19T03:53:21.559Z,0.95
2023-02-19T03:55:38.073Z,1.10
2023-02-19T03:57:54.364Z,1.00
2023-02-19T04:00:10.798Z,0.90
2023-02-19T04:02:27.249Z,0.88
2023-02-19T04:04:43.531Z,0.93
2023-02-19T04:07:00.197Z,1.30
2023-02-19T04:09:16.514Z,1.00
2023-02-19T04:11:32.953Z,0.90
2023-02-19T04:13:49.281Z,1.00
2023-02-19T04:16:05.663Z,1.30
2023-02-19T04:18:22.061Z,1.30
2023-02-19T04:20:38.318Z,1.40
2023-02-19T04:22:54.626Z,1.60
2023-02-19T04:25:11.289Z,1.42
2023-02-19T04:27:27.740Z,1.50
2023-02-19T04:29:44.245Z,1.40
2023-02-19T04:32:00.679Z,1.27
2023-02-19T04:34:17.071Z,1.48
2023-02-19T04:36:33.508Z,1.58
2023-02-19T04:38:49.804Z,1.60
2023-02-19T04:41:06.104Z,1.25
2023-02-19T04:43:22.473Z,1.13
2023-02-19T04:45:38.746Z,1.10
2023-02-19T04:47:55.135Z,1.02
2023-02-19T04:50:11.838Z,1.10
2023-02-19T04:52:28.296Z,0.80
2023-02-19T04:54:44.589Z,0.95
2023-02-19T04:57:01.080Z,0.60
2023-02-19T04:59:17.397Z,0.80
2023-02-19T05:01:33.888Z,0.50
2023-02-19T05:03:50.321Z,0.90
2023-02-19T05:06:06.772Z,1.02
2023-02-19T05:08:23.054Z,0.70
2023-02-19T05:10:39.534Z,0.85
2023-02-19T05:12:57.959Z,0.80
2023-02-19T05:15:14.361Z,1.40
2023-02-19T05:17:30.760Z,1.02
2023-02-19T05:19:47.472Z,1.00
2023-02-19T05:22:03.724Z,1.00
2023-02-19T05:24:20.364Z,1.20
2023-02-19T05:26:36.750Z,1.10
2023-02-19T05:28:53.152Z,1.27
2023-02-19T05:31:10.158Z,1.30
2023-02-19T05:33:26.763Z,1.17
2023-02-19T05:35:43.442Z,1.25
2023-02-19T05:37:59.992Z,1.40
2023-02-19T05:40:16.632Z,1.20
2023-02-19T05:42:32.955Z,1.50
2023-02-19T05:44:49.588Z,1.50
2023-02-19T05:47:05.923Z,1.40
2023-02-19T05:49:22.373Z,1.42
2023-02-19T05:51:38.687Z,1.60
2023-02-19T05:53:55.360Z,1.60
2023-02-19T05:56:12.006Z,2.05
2023-02-19T05:58:28.280Z,1.98
2023-02-19T06:00:44.611Z,1.90
2023-02-19T06:03:01.191Z,2.00
2023-02-19T06:05:17.576Z,1.88
2023-02-19T06:07:33.907Z,1.50
2023-02-19T06:09:50.202Z,1.70
2023-02-19T06:12:06.654Z,1.85
2023-02-19T06:14:23.153Z,1.60
2023-02-19T06:16:39.576Z,1.85
2023-02-19T06:18:55.819Z,1.60
2023-02-19T06:21:12.713Z,1.88
2023-02-19T06:23:29.295Z,1.52
2023-02-19T06:25:45.727Z,1.65
2023-02-19T06:28:02.020Z,1.83
2023-02-19T06:30:18.403Z,4.57
2023-02-19T06:32:35.127Z,4.63
2023-02-19T06:34:51.810Z,2.83
2023-02-19T06:37:08.132Z,6.82
2023-02-19T06:39:24.760Z,7.40
2023-02-19T06:41:41.498Z,3.83
2023-02-19T06:43:57.855Z,15.70
2023-02-19T06:46:14.412Z,12.77
2023-02-19T06:48:31.155Z,5.15
2023-02-19T06:50:47.619Z,18.90
2023-02-19T06:53:04.018Z,15.82
2023-02-19T06:55:20.720Z,23.85
2023-02-19T06:57:37.016Z,6.15
2023-02-19T06:59:53.347Z,8.60
2023-02-19T07:02:09.779Z,6.65
2023-02-19T07:04:26.566Z,4.18
2023-02-19T07:06:42.943Z,2.53
2023-02-19T07:08:59.503Z,2.25
2023-02-19T07:11:15.757Z,6.00
2023-02-19T07:13:32.396Z,3.70
2023-02-19T07:15:50.531Z,2.90
2023-02-19T07:18:08.740Z,6.80
2023-02-19T07:20:25.063Z,33.88
2023-02-19T07:22:41.360Z,16.90
2023-02-19T07:24:58.023Z,18.77
2023-02-19T07:27:14.423Z,20.48
2023-02-19T07:29:30.676Z,6.47
2023-02-19T07:31:47.045Z,8.63
2023-02-19T07:34:03.701Z,3.30
2023-02-19T07:36:20.063Z,6.53
2023-02-19T07:38:36.387Z,6.43
2023-02-19T07:40:52.810Z,3.30
2023-02-19T07:43:09.284Z,4.18
2023-02-19T07:45:25.743Z,2.67
2023-02-19T07:47:42.489Z,4.95
2023-02-19T07:49:58.860Z,6.38
2023-02-19T07:52:15.194Z,5.78
2023-02-19T07:54:31.916Z,8.05
2023-02-19T07:56:48.425Z,2.60
2023-02-19T07:59:04.792Z,4.50
2023-02-19T08:01:21.305Z,3.80
2023-02-19T08:03:37.783Z,4.40
2023-02-19T08:05:54.118Z,2.38
2023-02-19T08:08:10.816Z,2.42
2023-02-19T08:10:27.349Z,2.20
2023-02-19T08:12:43.719Z,2.20
2023-02-19T08:15:00.403Z,2.15
2023-02-19T08:17:16.880Z,2.50
2023-02-19T08:19:33.182Z,2.03
2023-02-19T08:21:49.724Z,1.90
2023-02-19T08:24:06.039Z,2.83
2023-02-19T08:26:22.517Z,1.90
2023-02-19T08:28:38.997Z,2.05
2023-02-19T08:30:55.429Z,2.30
2023-02-19T08:33:11.676Z,2.00
2023-02-19T08:35:28.138Z,2.00
2023-02-19T08:37:44.567Z,2.30
2023-02-19T08:40:01.035Z,4.28
2023-02-19T08:42:17.426Z,3.70
2023-02-19T08:44:33.866Z,1.98
2023-02-19T08:46:50.377Z,3.05
2023-02-19T08:49:07.086Z,3.70
2023-02-19T08:51:23.519Z,2.25
2023-02-19T08:53:39.822Z,5.38
2023-02-19T08:55:56.287Z,4.97
2023-02-19T08:58:13.019Z,2.42
2023-02-19T09:00:29.444Z,3.35
2023-02-19T09:02:45.906Z,2.70
2023-02-19T09:05:02.629Z,2.80
2023-02-19T09:07:19.345Z,3.78
2023-02-19T09:09:35.671Z,2.60
2023-02-19T09:11:52.163Z,2.20
2023-02-19T09:14:08.628Z,2.47
2023-02-19T09:16:25.888Z,2.50
2023-02-19T09:18:42.358Z,2.03
2023-02-19T09:20:58.849Z,1.92
2023-02-19T09:23:15.339Z,2.22
2023-02-19T09:25:31.801Z,2.25
2023-02-19T09:27:48.468Z,2.05
2023-02-19T09:30:05.205Z,1.83
2023-02-19T09:32:21.856Z,2.45
2023-02-19T09:34:38.363Z,2.08
2023-02-19T09:36:54.657Z,2.40
2023-02-19T09:39:10.989Z,1.90
2023-02-19T09:41:27.674Z,2.33
2023-02-19T09:43:44.494Z,1.90
2023-02-19T09:46:00.960Z,2.20
2023-02-19T09:48:17.524Z,2.25
2023-02-19T09:50:33.983Z,2.40
2023-02-19T09:52:50.321Z,2.20
2023-02-19T09:55:07.034Z,2.38
2023-02-19T09:57:23.709Z,2.58
2023-02-19T09:59:40.081Z,7.25
2023-02-19T10:01:56.468Z,4.40
2023-02-19T10:04:12.786Z,2.80
2023-02-19T10:06:29.527Z,2.30
2023-02-19T10:08:46.120Z,2.22
2023-02-19T10:11:02.806Z,2.70
2023-02-19T10:13:19.219Z,2.58
2023-02-19T10:15:35.647Z,2.53
2023-02-19T10:17:52.384Z,2.40
2023-02-19T10:20:09.094Z,2.30
2023-02-19T10:22:25.419Z,2.20
2023-02-19T10:24:41.835Z,2.15
2023-02-19T10:26:58.296Z,1.95
2023-02-19T10:29:14.669Z,2.00
2023-02-19T10:31:31.032Z,2.33
2023-02-19T10:33:47.769Z,1.95
2023-02-19T10:36:04.240Z,2.30
2023-02-19T10:38:20.551Z,2.67
2023-02-19T10:40:37.362Z,2.50
2023-02-19T10:42:54.028Z,2.42
2023-02-19T10:45:10.473Z,2.78
2023-02-19T10:47:26.912Z,2.78
2023-02-19T10:49:43.586Z,3.25
2023-02-19T10:51:59.922Z,2.58
2023-02-19T10:54:16.382Z,2.30
2023-02-19T10:56:32.736Z,2.67
2023-02-19T10:58:49.231Z,2.10
2023-02-19T11:01:06.291Z,2.33
2023-02-19T11:03:22.660Z,2.28
2023-02-19T11:05:39.333Z,2.40
2023-02-19T11:07:55.806Z,2.50
2023-02-19T11:10:12.514Z,2.05
2023-02-19T11:12:28.956Z,2.00
2023-02-19T11:14:45.415Z,2.10
2023-02-19T11:17:02.214Z,2.20
2023-02-19T11:19:19.024Z,2.08
2023-02-19T11:21:35.476Z,2.47
2023-02-19T11:23:52.246Z,2.45
2023-02-19T11:26:08.581Z,2.55
2023-02-19T11:28:25.091Z,2.60
2023-02-19T11:30:41.494Z,2.60
2023-02-19T11:32:58.526Z,2.50
2023-02-19T11:35:14.847Z,2.05
2023-02-19T11:37:31.541Z,2.53
2023-02-19T11:39:48.180Z,2.88
2023-02-19T11:42:04.883Z,2.13
2023-02-19T11:44:21.638Z,2.20
2023-02-19T11:46:38.350Z,2.33
2023-02-19T11:48:54.743Z,2.60
2023-02-19T11:51:11.553Z,2.45
2023-02-19T11:53:27.946Z,2.75
2023-02-19T11:55:44.388Z,2.60
2023-02-19T11:58:01.019Z,2.70
2023-02-19T12:00:17.803Z,2.65
2023-02-19T12:02:34.226Z,2.30
2023-02-19T12:04:50.755Z,2.33
2023-02-19T12:07:07.085Z,2.30
2023-02-19T12:09:24.101Z,2.13
2023-02-19T12:11:40.504Z,2.42
2023-02-19T12:13:56.953Z,2.42
2023-02-19T12:16:13.435Z,2.72
2023-02-19T12:18:30.162Z,2.50
2023-02-19T12:20:46.652Z,2.60
2023-02-19T12:23:03.461Z,7.10
2023-02-19T12:25:19.790Z,4.35
2023-02-19T12:27:36.292Z,12.23
2023-02-19T12:29:52.595Z,8.07
2023-02-19T12:32:09.104Z,6.05
2023-02-19T12:34:25.497Z,3.25
2023-02-19T12:36:42.202Z,5.57
2023-02-19T12:38:58.632Z,4.07
2023-02-19T12:41:15.245Z,3.90
2023-02-19T12:43:31.940Z,4.28
2023-02-19T12:45:48.501Z,3.97
2023-02-19T12:48:05.006Z,2.90
2023-02-19T12:50:21.812Z,2.83
2023-02-19T12:52:38.220Z,3.08
2023-02-19T12:54:55.878Z,3.05
2023-02-19T12:57:12.802Z,3.00
2023-02-19T12:59:29.231Z,2.65
2023-02-19T13:01:45.606Z,3.00
2023-02-19T13:04:02.106Z,3.00
2023-02-19T13:06:18.865Z,2.45
2023-02-19T13:08:36.576Z,2.60
2023-02-19T13:10:54.157Z,4.05
2023-02-19T13:13:10.886Z,7.20
2023-02-19T13:15:27.206Z,3.25
2023-02-19T13:17:43.894Z,3.72
2023-02-19T13:20:00.255Z,2.90
2023-02-19T13:22:17.001Z,3.47
2023-02-19T13:24:33.795Z,2.42
2023-02-19T13:26:50.089Z,2.92
2023-02-19T13:29:06.370Z,2.42
2023-02-19T13:31:22.931Z,2.58
2023-02-19T13:33:39.460Z,2.40
2023-02-19T13:35:55.998Z,1.83
2023-02-19T13:38:12.332Z,1.70
2023-02-19T13:40:29.112Z,1.75
2023-02-19T13:42:45.825Z,2.00
2023-02-19T13:45:02.279Z,1.55
2023-02-19T13:47:18.911Z,1.50
2023-02-19T13:49:35.324Z,1.80
2023-02-19T13:51:51.783Z,2.15
2023-02-19T13:54:08.110Z,1.92
2023-02-19T13:56:24.585Z,2.00
2023-02-19T13:58:41.120Z,1.70
2023-02-19T14:00:57.754Z,1.70
2023-02-19T14:03:14.085Z,1.48
2023-02-19T14:05:30.455Z,2.13
2023-02-19T14:07:46.872Z,1.55
2023-02-19T14:10:03.236Z,1.63
2023-02-19T14:12:19.862Z,3.13
2023-02-19T14:14:36.232Z,2.85
2023-02-19T14:16:52.827Z,2.35
2023-02-19T14:19:09.162Z,2.13
2023-02-19T14:21:25.652Z,2.10
2023-02-19T14:23:43.458Z,2.60
2023-02-19T14:25:59.903Z,2.55
2023-02-19T14:28:16.281Z,2.30
2023-02-19T14:30:33.016Z,2.70
2023-02-19T14:32:54.509Z,2.25
2023-02-19T14:35:15.199Z,3.33
2023-02-19T14:37:31.742Z,3.08
2023-02-19T14:39:48.474Z,2.78
2023-02-19T14:42:04.877Z,2.88
2023-02-19T14:44:21.523Z,2.83
2023-02-19T14:46:37.903Z,3.40
2023-02-19T14:48:54.242Z,3.28
2023-02-19T14:51:11.101Z,3.60
2023-02-19T14:53:27.608Z,2.80
2023-02-19T14:55:44.253Z,3.03
2023-02-19T14:58:00.704Z,3.00
2023-02-19T15:00:17.012Z,2.90
2023-02-19T15:02:33.418Z,3.03
2023-02-19T15:04:49.900Z,3.08
2023-02-19T15:07:06.405Z,2.83
2023-02-19T15:09:22.718Z,3.05
2023-02-19T15:11:39.127Z,2.60
2023-02-19T15:13:57.230Z,2.40
2023-02-19T15:16:14.100Z,2.70
2023-02-19T15:18:30.648Z,3.15
2023-02-19T15:20:47.367Z,2.65
2023-02-19T15:23:04.077Z,2.95
2023-02-19T15:25:20.474Z,2.60
2023-02-19T15:27:36.816Z,3.15
2023-02-19T15:29:53.798Z,2.92
2023-02-19T15:32:10.264Z,2.80
2023-02-19T15:34:26.590Z,2.55
2023-02-19T15:36:43.067Z,2.88
2023-02-19T15:38:59.433Z,2.42
2023-02-19T15:41:15.911Z,2.58
2023-02-19T15:43:32.452Z,2.15
2023-02-19T15:45:48.720Z,1.90
2023-02-19T15:48:05.205Z,1.90
2023-02-19T15:50:21.644Z,1.75
2023-02-19T15:52:38.002Z,1.83
2023-02-19T15:54:54.409Z,2.00
2023-02-19T15:57:10.730Z,1.80
2023-02-19T15:59:27.050Z,2.17
2023-02-19T16:01:43.693Z,2.00
2023-02-19T16:04:00.412Z,2.20
2023-02-19T16:06:16.852Z,2.08
2023-02-19T16:08:33.158Z,2.15
2023-02-19T16:10:49.453Z,2.22
2023-02-19T16:13:05.764Z,2.28
2023-02-19T16:15:22.290Z,2.55
2023-02-19T16:17:38.953Z,2.50
2023-02-19T16:19:55.661Z,2.45
2023-02-19T16:22:11.907Z,2.38
2023-02-19T16:24:28.617Z,2.63
2023-02-19T16:26:45.409Z,2.40
2023-02-19T16:29:01.685Z,3.30
2023-02-19T16:31:18.107Z,2.90
2023-02-19T16:33:34.638Z,2.55
2023-02-19T16:35:51.139Z,3.20
2023-02-19T16:38:07.431Z,3.28
2023-02-19T16:40:23.891Z,2.58
2023-02-19T16:42:40.207Z,2.25
2023-02-19T16:44:56.553Z,2.60
2023-02-19T16:47:13.243Z,3.17
2023-02-19T16:49:29.566Z,2.83
2023-02-19T16:51:45.960Z,3.00
2023-02-19T16:54:02.503Z,3.05
2023-02-19T16:56:19.014Z,3.05
2023-02-19T16:58:36.433Z,2.95
2023-02-19T17:00:53.874Z,3.03
2023-02-19T17:03:10.368Z,3.60
2023-02-19T17:05:26.712Z,3.75
2023-02-19T17:07:43.169Z,4.40
2023-02-19T17:09:59.721Z,4.25
2023-02-19T17:12:16.092Z,4.00
2023-02-19T17:14:32.572Z,3.50
2023-02-19T17:16:49.100Z,3.47
2023-02-19T17:19:05.542Z,3.67
2023-02-19T17:21:22.021Z,4.40
2023-02-19T17:23:38.319Z,3.60
2023-02-19T17:25:54.586Z,3.75
2023-02-19T17:28:11.078Z,3.90
2023-02-19T17:30:27.827Z,4.03
2023-02-19T17:32:44.191Z,3.30
2023-02-19T17:35:00.520Z,3.42
2023-02-19T17:37:17.359Z,4.03
2023-02-19T17:39:33.701Z,3.58
2023-02-19T17:41:50.020Z,3.83
2023-02-19T17:44:06.555Z,4.05
2023-02-19T17:46:22.953Z,3.90
2023-02-19T17:48:39.653Z,4.30
2023-02-19T17:50:56.008Z,4.85
2023-02-19T17:53:12.730Z,5.03
2023-02-19T17:55:29.230Z,6.03
2023-02-19T17:57:45.655Z,5.00
2023-02-19T18:00:02.008Z,5.40
2023-02-19T18:02:18.522Z,5.57
2023-02-19T18:04:36.603Z,5.68
2023-02-19T18:06:53.324Z,4.65
2023-02-19T18:09:09.649Z,4.28
2023-02-19T18:11:26.101Z,4.05
2023-02-19T18:13:42.645Z,4.68
2023-02-19T18:15:59.327Z,4.25
2023-02-19T18:18:15.811Z,3.63
2023-02-19T18:20:32.176Z,3.30
2023-02-19T18:22:48.557Z,3.60
2023-02-19T18:25:05.247Z,3.88
2023-02-19T18:27:21.682Z,5.10
2023-02-19T18:29:38.030Z,4.85
2023-02-19T18:31:54.623Z,6.55
2023-02-19T18:34:11.107Z,7.55
2023-02-19T18:36:27.871Z,8.35
2023-02-19T18:38:44.526Z,8.82
2023-02-19T18:41:01.327Z,7.13
2023-02-19T18:43:18.079Z,6.85
2023-02-19T18:45:34.398Z,6.05
2023-02-19T18:47:51.110Z,7.57
2023-02-19T18:50:07.735Z,6.00
2023-02-19T18:52:24.040Z,6.82
2023-02-19T18:54:40.391Z,7.07
2023-02-19T18:56:56.841Z,6.60
2023-02-19T18:59:13.569Z,6.70
2023-02-19T19:01:30.091Z,5.90
2023-02-19T19:03:46.512Z,5.70
2023-02-19T19:06:03.147Z,5.95
2023-02-19T19:08:19.937Z,5.22
2023-02-19T19:10:36.663Z,4.70
2023-02-19T19:12:53.001Z,4.25
2023-02-19T19:15:09.805Z,4.45
2023-02-19T19:17:26.266Z,4.40
2023-02-19T19:19:42.570Z,4.85
2023-02-19T19:21:58.912Z,4.25
2023-02-19T19:24:15.347Z,5.00
2023-02-19T19:26:32.058Z,5.25
2023-02-19T19:28:48.537Z,5.63
2023-02-19T19:31:04.880Z,4.35
2023-02-19T19:33:21.434Z,4.43
2023-02-19T19:35:37.928Z,4.47
2023-02-19T19:37:54.258Z,4.57
2023-02-19T19:40:11.036Z,4.00
2023-02-19T19:42:27.462Z,4.53
2023-02-19T19:44:44.189Z,4.70
2023-02-19T19:47:00.593Z,4.40
2023-02-19T19:49:17.340Z,4.07
2023-02-19T19:51:33.845Z,4.25
2023-02-19T19:53:50.231Z,4.63
2023-02-19T19:56:06.926Z,4.25
2023-02-19T19:58:23.291Z,3.92
2023-02-19T20:00:39.591Z,4.10
2023-02-19T20:02:56.181Z,4.13
2023-02-19T20:05:12.967Z,3.92
2023-02-19T20:07:29.409Z,3.80
2023-02-19T20:09:45.826Z,3.28
2023-02-19T20:12:02.532Z,4.15
2023-02-19T20:14:18.854Z,3.83
2023-02-19T20:16:35.348Z,3.50
2023-02-19T20:18:51.851Z,3.70
2023-02-19T20:21:08.631Z,3.75
2023-02-19T20:23:27.274Z,3.60
2023-02-19T20:25:43.688Z,3.90
2023-02-19T20:28:00.123Z,3.67
2023-02-19T20:30:16.967Z,3.70
2023-02-19T20:32:33.731Z,3.80
2023-02-19T20:34:50.466Z,3.88
2023-02-19T20:37:06.797Z,3.78
2023-02-19T20:39:23.480Z,3.80
2023-02-19T20:41:40.009Z,4.10
2023-02-19T20:43:56.455Z,3.40
2023-02-19T20:46:13.393Z,4.00
2023-02-19T20:48:30.028Z,3.97
2023-02-19T20:50:46.423Z,3.83
2023-02-19T20:53:02.766Z,3.30
2023-02-19T20:55:19.197Z,3.97
2023-02-19T20:57:35.645Z,3.65
2023-02-19T20:59:52.276Z,3.22
2023-02-19T21:02:08.802Z,3.85
2023-02-19T21:04:25.214Z,3.70
2023-02-19T21:06:41.596Z,3.60
2023-02-19T21:08:58.592Z,3.40
2023-02-19T21:11:15.142Z,4.03
2023-02-19T21:13:31.775Z,3.67
2023-02-19T21:15:48.207Z,3.80
2023-02-19T21:18:04.704Z,4.55
2023-02-19T21:20:21.214Z,4.03
2023-02-19T21:22:37.680Z,3.80
2023-02-19T21:24:54.483Z,4.05
2023-02-19T21:27:10.831Z,4.18
2023-02-19T21:29:27.402Z,4.00
2023-02-19T21:31:44.246Z,4.32
2023-02-19T21:34:00.701Z,3.75
2023-02-19T21:36:17.028Z,4.05
2023-02-19T21:38:33.366Z,4.30
2023-02-19T21:40:49.696Z,3.78
2023-02-19T21:43:06.245Z,3.92
2023-02-19T21:45:22.610Z,4.20
2023-02-19T21:47:39.291Z,4.43
2023-02-19T21:49:56.031Z,4.80
2023-02-19T21:52:12.432Z,5.40
2023-02-19T21:54:28.878Z,5.10
2023-02-19T21:56:45.235Z,4.78
2023-02-19T21:59:01.998Z,5.18
2023-02-19T22:01:18.738Z,5.13
2023-02-19T22:03:35.076Z,5.53
2023-02-19T22:05:51.774Z,5.85
2023-02-19T22:08:08.106Z,5.82
2023-02-19T22:10:24.694Z,5.70
2023-02-19T22:12:41.075Z,5.72
2023-02-19T22:14:57.411Z,6.47
2023-02-19T22:17:14.131Z,6.82
2023-02-19T22:19:30.709Z,7.25
2023-02-19T22:21:47.177Z,6.28
2023-02-19T22:24:03.496Z,6.93
2023-02-19T22:26:20.100Z,6.82
2023-02-19T22:28:36.551Z,7.93
2023-02-19T22:30:52.932Z,7.28
2023-02-19T22:33:09.693Z,6.75
2023-02-19T22:35:26.348Z,7.22
2023-02-19T22:37:42.983Z,6.05
2023-02-19T22:39:59.284Z,6.32
2023-02-19T22:42:15.880Z,6.50
2023-02-19T22:44:32.613Z,6.57
2023-02-19T22:46:48.984Z,6.20
2023-02-19T22:49:05.640Z,6.30
2023-02-19T22:51:21.935Z,6.07
2023-02-19T22:53:38.388Z,6.15
2023-02-19T22:55:54.739Z,5.90
2023-02-19T22:58:11.234Z,5.57
2023-02-19T23:00:27.948Z,5.65
2023-02-19T23:02:44.591Z,5.85
2023-02-19T23:05:01.359Z,5.57
2023-02-19T23:07:18.085Z,5.72
2023-02-19T23:09:34.425Z,5.65
2023-02-19T23:11:50.893Z,5.30
2023-02-19T23:14:07.565Z,5.45
2023-02-19T23:16:24.002Z,5.28
2023-02-19T23:18:40.429Z,6.03
2023-02-19T23:20:56.912Z,5.65
2023-02-19T23:23:13.364Z,5.75
2023-02-19T23:25:29.863Z,5.57
2023-02-19T23:27:46.168Z,5.90
2023-02-19T23:30:02.587Z,5.88
2023-02-19T23:32:19.540Z,5.88
2023-02-19T23:34:35.846Z,5.90
2023-02-19T23:36:52.582Z,5.60
2023-02-19T23:39:09.014Z,6.18
2023-02-19T23:41:25.586Z,5.60
2023-02-19T23:43:41.912Z,5.70
2023-02-19T23:45:58.428Z,5.70
2023-02-19T23:48:14.868Z,5.53
2023-02-19T23:50:31.553Z,5.50
2023-02-19T23:52:48.000Z,5.88
2023-02-19T23:55:04.430Z,5.32
2023-02-19T23:57:21.142Z,5.80
2023-02-19T23:59:37.843Z,5.90
